sensor_id;sensor_type;location;lat;lon;timestamp;temperature;humidity
59007;DHT22;44792;52.760;6.726;2022-09-09T00:01:23;15.00;99.90
59007;DHT22;44792;52.760;6.726;2022-09-09T00:04:01;15.10;99.90
59007;DHT22;44792;52.760;6.726;2022-09-09T00:06:35;15.10;99.90
59007;DHT22;44792;52.760;6.726;2022-09-09T00:11:41;15.10;99.90
59007;DHT22;44792;52.760;6.726;2022-09-09T00:14:27;15.00;99.90
59007;DHT22;44792;52.760;6.726;2022-09-09T00:16:56;15.10;99.90
59007;DHT22;44792;52.760;6.726;2022-09-09T00:19:31;15.00;99.90
59007;DHT22;44792;52.760;6.726;2022-09-09T00:22:18;15.00;99.90
59007;DHT22;44792;52.760;6.726;2022-09-09T00:24:46;15.10;99.90
59007;DHT22;44792;52.760;6.726;2022-09-09T00:27:19;15.00;99.90
59007;DHT22;44792;52.760;6.726;2022-09-09T00:32:39;15.00;99.90
59007;DHT22;44792;52.760;6.726;2022-09-09T00:35:29;15.00;99.90
59007;DHT22;44792;52.760;6.726;2022-09-09T00:38:00;15.10;99.90
59007;DHT22;44792;52.760;6.726;2022-09-09T00:40:31;15.10;99.90
59007;DHT22;44792;52.760;6.726;2022-09-09T00:51:15;15.10;99.90
59007;DHT22;44792;52.760;6.726;2022-09-09T00:54:08;15.10;99.90
59007;DHT22;44792;52.760;6.726;2022-09-09T00:57:02;15.10;99.90
59007;DHT22;44792;52.760;6.726;2022-09-09T00:59:45;15.20;99.90
59007;DHT22;44792;52.760;6.726;2022-09-09T01:02:19;15.20;99.90
59007;DHT22;44792;52.760;6.726;2022-09-09T01:04:47;15.20;99.90
59007;DHT22;44792;52.760;6.726;2022-09-09T01:07:22;15.10;99.90
59007;DHT22;44792;52.760;6.726;2022-09-09T01:10:03;15.10;99.90
59007;DHT22;44792;52.760;6.726;2022-09-09T01:12:42;15.20;99.90
59007;DHT22;44792;52.760;6.726;2022-09-09T01:15:22;15.10;99.90
59007;DHT22;44792;52.760;6.726;2022-09-09T01:18:08;15.10;99.90
59007;DHT22;44792;52.760;6.726;2022-09-09T01:28:51;15.20;99.90
59007;DHT22;44792;52.760;6.726;2022-09-09T01:31:26;15.30;99.90
59007;DHT22;44792;52.760;6.726;2022-09-09T01:33:53;15.30;99.90
59007;DHT22;44792;52.760;6.726;2022-09-09T01:36:38;15.40;99.90
59007;DHT22;44792;52.760;6.726;2022-09-09T01:39:06;15.40;99.90
59007;DHT22;44792;52.760;6.726;2022-09-09T01:41:32;15.40;99.90
59007;DHT22;44792;52.760;6.726;2022-09-09T01:43:58;15.40;99.90
59007;DHT22;44792;52.760;6.726;2022-09-09T01:46:23;15.40;99.90
59007;DHT22;44792;52.760;6.726;2022-09-09T01:48:51;15.40;99.90
59007;DHT22;44792;52.760;6.726;2022-09-09T01:51:18;15.40;99.90
59007;DHT22;44792;52.760;6.726;2022-09-09T01:53:45;15.50;99.90
59007;DHT22;44792;52.760;6.726;2022-09-09T02:04:48;15.40;99.90
59007;DHT22;44792;52.760;6.726;2022-09-09T02:07:40;15.40;99.90
59007;DHT22;44792;52.760;6.726;2022-09-09T02:10:42;15.40;99.90
59007;DHT22;44792;52.760;6.726;2022-09-09T02:13:14;15.40;99.90
59007;DHT22;44792;52.760;6.726;2022-09-09T02:15:54;15.40;99.90
59007;DHT22;44792;52.760;6.726;2022-09-09T02:18:27;15.40;99.90
59007;DHT22;44792;52.760;6.726;2022-09-09T02:20:54;15.40;99.90
59007;DHT22;44792;52.760;6.726;2022-09-09T02:23:21;15.40;99.90
59007;DHT22;44792;52.760;6.726;2022-09-09T02:25:48;15.40;99.90
59007;DHT22;44792;52.760;6.726;2022-09-09T02:28:18;15.40;99.90
59007;DHT22;44792;52.760;6.726;2022-09-09T02:30:46;15.40;99.90
59007;DHT22;44792;52.760;6.726;2022-09-09T02:33:14;15.50;99.90
59007;DHT22;44792;52.760;6.726;2022-09-09T02:35:40;15.50;99.90
59007;DHT22;44792;52.760;6.726;2022-09-09T02:38:11;15.50;99.90
59007;DHT22;44792;52.760;6.726;2022-09-09T02:40:37;15.50;99.90
59007;DHT22;44792;52.760;6.726;2022-09-09T02:43:03;15.40;99.90
59007;DHT22;44792;52.760;6.726;2022-09-09T02:45:48;15.40;99.90
59007;DHT22;44792;52.760;6.726;2022-09-09T02:48:20;15.40;99.90
59007;DHT22;44792;52.760;6.726;2022-09-09T02:51:15;15.40;99.90
59007;DHT22;44792;52.760;6.726;2022-09-09T02:53:57;15.50;99.90
59007;DHT22;44792;52.760;6.726;2022-09-09T02:56:27;15.40;99.90
59007;DHT22;44792;52.760;6.726;2022-09-09T02:58:56;15.40;99.90
59007;DHT22;44792;52.760;6.726;2022-09-09T03:01:21;15.40;99.90
59007;DHT22;44792;52.760;6.726;2022-09-09T03:03:47;15.40;99.90
59007;DHT22;44792;52.760;6.726;2022-09-09T03:06:13;15.40;99.90
59007;DHT22;44792;52.760;6.726;2022-09-09T03:08:39;15.50;99.90
59007;DHT22;44792;52.760;6.726;2022-09-09T03:11:05;15.40;99.90
59007;DHT22;44792;52.760;6.726;2022-09-09T03:13:30;15.30;99.90
59007;DHT22;44792;52.760;6.726;2022-09-09T03:15:56;15.30;99.90
59007;DHT22;44792;52.760;6.726;2022-09-09T03:18:22;15.30;99.90
59007;DHT22;44792;52.760;6.726;2022-09-09T03:20:48;15.30;99.90
59007;DHT22;44792;52.760;6.726;2022-09-09T03:23:14;15.30;99.90
59007;DHT22;44792;52.760;6.726;2022-09-09T03:25:45;15.30;99.90
59007;DHT22;44792;52.760;6.726;2022-09-09T03:28:11;15.30;99.90
59007;DHT22;44792;52.760;6.726;2022-09-09T03:30:37;15.30;99.90
59007;DHT22;44792;52.760;6.726;2022-09-09T03:33:03;15.30;99.90
59007;DHT22;44792;52.760;6.726;2022-09-09T03:35:29;15.20;99.90
59007;DHT22;44792;52.760;6.726;2022-09-09T03:37:54;15.20;99.90
59007;DHT22;44792;52.760;6.726;2022-09-09T03:40:21;15.20;99.90
59007;DHT22;44792;52.760;6.726;2022-09-09T03:42:47;15.20;99.90
59007;DHT22;44792;52.760;6.726;2022-09-09T03:45:13;15.20;99.90
59007;DHT22;44792;52.760;6.726;2022-09-09T03:47:38;15.20;99.90
59007;DHT22;44792;52.760;6.726;2022-09-09T03:50:05;15.20;99.90
59007;DHT22;44792;52.760;6.726;2022-09-09T03:52:37;15.20;99.90
59007;DHT22;44792;52.760;6.726;2022-09-09T03:55:04;15.20;99.90
59007;DHT22;44792;52.760;6.726;2022-09-09T03:57:30;15.20;99.90
59007;DHT22;44792;52.760;6.726;2022-09-09T03:59:56;15.20;99.90
59007;DHT22;44792;52.760;6.726;2022-09-09T04:02:21;15.20;99.90
59007;DHT22;44792;52.760;6.726;2022-09-09T04:04:47;15.20;99.90
59007;DHT22;44792;52.760;6.726;2022-09-09T04:07:13;15.20;99.90
59007;DHT22;44792;52.760;6.726;2022-09-09T04:09:39;15.20;99.90
59007;DHT22;44792;52.760;6.726;2022-09-09T04:12:04;15.20;99.90
59007;DHT22;44792;52.760;6.726;2022-09-09T04:14:31;15.20;99.90
59007;DHT22;44792;52.760;6.726;2022-09-09T04:16:57;15.20;99.90
59007;DHT22;44792;52.760;6.726;2022-09-09T04:19:24;15.30;99.90
59007;DHT22;44792;52.760;6.726;2022-09-09T04:21:50;15.20;99.90
59007;DHT22;44792;52.760;6.726;2022-09-09T04:24:17;15.20;99.90
59007;DHT22;44792;52.760;6.726;2022-09-09T04:26:43;15.20;99.90
59007;DHT22;44792;52.760;6.726;2022-09-09T04:29:09;15.20;99.90
59007;DHT22;44792;52.760;6.726;2022-09-09T04:31:35;15.30;99.90
59007;DHT22;44792;52.760;6.726;2022-09-09T04:34:00;15.30;99.90
59007;DHT22;44792;52.760;6.726;2022-09-09T04:36:31;15.30;99.90
59007;DHT22;44792;52.760;6.726;2022-09-09T04:38:57;15.30;99.90
59007;DHT22;44792;52.760;6.726;2022-09-09T04:41:23;15.20;99.90
59007;DHT22;44792;52.760;6.726;2022-09-09T04:43:49;15.20;99.90
59007;DHT22;44792;52.760;6.726;2022-09-09T04:46:15;15.10;99.90
59007;DHT22;44792;52.760;6.726;2022-09-09T04:48:43;15.10;99.90
59007;DHT22;44792;52.760;6.726;2022-09-09T04:51:11;15.10;99.90
59007;DHT22;44792;52.760;6.726;2022-09-09T04:53:37;15.10;99.90
59007;DHT22;44792;52.760;6.726;2022-09-09T04:56:05;15.10;99.90
59007;DHT22;44792;52.760;6.726;2022-09-09T04:58:31;15.10;99.90
59007;DHT22;44792;52.760;6.726;2022-09-09T05:01:09;15.10;99.90
59007;DHT22;44792;52.760;6.726;2022-09-09T05:03:36;15.00;99.90
59007;DHT22;44792;52.760;6.726;2022-09-09T05:06:07;15.10;99.90
59007;DHT22;44792;52.760;6.726;2022-09-09T05:08:38;15.10;99.90
59007;DHT22;44792;52.760;6.726;2022-09-09T05:11:13;15.00;99.90
59007;DHT22;44792;52.760;6.726;2022-09-09T05:13:38;15.00;99.90
59007;DHT22;44792;52.760;6.726;2022-09-09T05:16:04;14.90;99.90
59007;DHT22;44792;52.760;6.726;2022-09-09T05:18:29;15.00;99.90
59007;DHT22;44792;52.760;6.726;2022-09-09T05:20:59;15.00;99.90
59007;DHT22;44792;52.760;6.726;2022-09-09T05:23:25;15.00;99.90
59007;DHT22;44792;52.760;6.726;2022-09-09T05:25:57;15.00;99.90
59007;DHT22;44792;52.760;6.726;2022-09-09T05:28:26;15.00;99.90
59007;DHT22;44792;52.760;6.726;2022-09-09T05:31:00;15.00;99.90
59007;DHT22;44792;52.760;6.726;2022-09-09T05:33:29;15.00;99.90
59007;DHT22;44792;52.760;6.726;2022-09-09T05:36:04;15.00;99.90
59007;DHT22;44792;52.760;6.726;2022-09-09T05:38:31;15.10;99.90
59007;DHT22;44792;52.760;6.726;2022-09-09T05:40:57;15.20;99.90
59007;DHT22;44792;52.760;6.726;2022-09-09T05:43:23;15.20;99.90
59007;DHT22;44792;52.760;6.726;2022-09-09T05:46:06;15.30;99.90
59007;DHT22;44792;52.760;6.726;2022-09-09T05:48:43;15.40;99.90
59007;DHT22;44792;52.760;6.726;2022-09-09T05:51:16;15.40;99.90
59007;DHT22;44792;52.760;6.726;2022-09-09T05:53:43;15.40;99.90
59007;DHT22;44792;52.760;6.726;2022-09-09T05:56:13;15.50;99.90
59007;DHT22;44792;52.760;6.726;2022-09-09T05:58:43;15.40;99.90
59007;DHT22;44792;52.760;6.726;2022-09-09T06:01:11;15.40;99.90
59007;DHT22;44792;52.760;6.726;2022-09-09T06:03:38;15.40;99.90
59007;DHT22;44792;52.760;6.726;2022-09-09T06:06:07;15.40;99.90
59007;DHT22;44792;52.760;6.726;2022-09-09T06:08:34;15.40;99.90
59007;DHT22;44792;52.760;6.726;2022-09-09T06:11:08;15.40;99.90
59007;DHT22;44792;52.760;6.726;2022-09-09T06:13:34;15.40;99.90
59007;DHT22;44792;52.760;6.726;2022-09-09T06:16:00;15.30;99.90
59007;DHT22;44792;52.760;6.726;2022-09-09T06:18:26;15.30;99.90
59007;DHT22;44792;52.760;6.726;2022-09-09T06:21:02;15.30;99.90
59007;DHT22;44792;52.760;6.726;2022-09-09T06:23:32;15.30;99.90
59007;DHT22;44792;52.760;6.726;2022-09-09T06:26:13;15.30;99.90
59007;DHT22;44792;52.760;6.726;2022-09-09T06:28:39;15.20;99.90
59007;DHT22;44792;52.760;6.726;2022-09-09T06:31:07;15.20;99.90
59007;DHT22;44792;52.760;6.726;2022-09-09T06:33:35;15.30;99.90
59007;DHT22;44792;52.760;6.726;2022-09-09T06:36:02;15.40;99.90
59007;DHT22;44792;52.760;6.726;2022-09-09T06:38:29;15.30;99.90
59007;DHT22;44792;52.760;6.726;2022-09-09T06:40:57;15.40;99.90
59007;DHT22;44792;52.760;6.726;2022-09-09T06:43:24;15.40;99.90
59007;DHT22;44792;52.760;6.726;2022-09-09T06:45:54;15.40;99.90
59007;DHT22;44792;52.760;6.726;2022-09-09T06:48:20;15.40;99.90
59007;DHT22;44792;52.760;6.726;2022-09-09T06:50:45;15.40;99.90
59007;DHT22;44792;52.760;6.726;2022-09-09T06:53:11;15.40;99.90
59007;DHT22;44792;52.760;6.726;2022-09-09T06:55:37;15.40;99.90
59007;DHT22;44792;52.760;6.726;2022-09-09T06:58:05;15.50;99.90
59007;DHT22;44792;52.760;6.726;2022-09-09T07:00:32;15.50;99.90
59007;DHT22;44792;52.760;6.726;2022-09-09T07:02:58;15.60;99.90
59007;DHT22;44792;52.760;6.726;2022-09-09T07:05:23;15.60;99.90
59007;DHT22;44792;52.760;6.726;2022-09-09T07:07:51;15.60;99.90
59007;DHT22;44792;52.760;6.726;2022-09-09T07:10:17;15.60;99.90
59007;DHT22;44792;52.760;6.726;2022-09-09T07:12:42;15.70;99.90
59007;DHT22;44792;52.760;6.726;2022-09-09T07:15:08;15.80;99.90
59007;DHT22;44792;52.760;6.726;2022-09-09T07:17:35;16.00;99.90
59007;DHT22;44792;52.760;6.726;2022-09-09T07:20:01;16.10;99.90
59007;DHT22;44792;52.760;6.726;2022-09-09T07:22:28;16.10;99.90
59007;DHT22;44792;52.760;6.726;2022-09-09T07:24:53;16.10;99.90
59007;DHT22;44792;52.760;6.726;2022-09-09T07:27:19;16.10;99.90
59007;DHT22;44792;52.760;6.726;2022-09-09T07:29:44;16.10;99.90
59007;DHT22;44792;52.760;6.726;2022-09-09T07:32:10;16.10;99.90
59007;DHT22;44792;52.760;6.726;2022-09-09T07:34:36;16.10;99.90
59007;DHT22;44792;52.760;6.726;2022-09-09T07:37:02;16.20;99.90
59007;DHT22;44792;52.760;6.726;2022-09-09T07:39:27;16.20;99.90
59007;DHT22;44792;52.760;6.726;2022-09-09T07:41:53;16.30;99.90
59007;DHT22;44792;52.760;6.726;2022-09-09T07:44:23;16.30;99.90
59007;DHT22;44792;52.760;6.726;2022-09-09T07:46:52;16.30;99.90
59007;DHT22;44792;52.760;6.726;2022-09-09T07:49:18;16.30;99.90
59007;DHT22;44792;52.760;6.726;2022-09-09T07:51:46;16.40;99.90
59007;DHT22;44792;52.760;6.726;2022-09-09T07:54:14;16.40;99.90
59007;DHT22;44792;52.760;6.726;2022-09-09T07:56:41;16.40;99.90
59007;DHT22;44792;52.760;6.726;2022-09-09T07:59:07;16.40;99.90
59007;DHT22;44792;52.760;6.726;2022-09-09T08:01:41;16.40;99.90
59007;DHT22;44792;52.760;6.726;2022-09-09T08:04:13;16.50;99.90
59007;DHT22;44792;52.760;6.726;2022-09-09T08:06:44;16.50;99.90
59007;DHT22;44792;52.760;6.726;2022-09-09T08:09:12;16.60;99.90
59007;DHT22;44792;52.760;6.726;2022-09-09T08:11:39;16.60;99.90
59007;DHT22;44792;52.760;6.726;2022-09-09T08:14:06;16.70;99.90
59007;DHT22;44792;52.760;6.726;2022-09-09T08:16:34;16.70;99.90
59007;DHT22;44792;52.760;6.726;2022-09-09T08:19:03;16.70;99.90
59007;DHT22;44792;52.760;6.726;2022-09-09T08:21:30;16.80;99.90
59007;DHT22;44792;52.760;6.726;2022-09-09T08:23:58;16.90;99.90
59007;DHT22;44792;52.760;6.726;2022-09-09T08:26:30;16.90;99.90
59007;DHT22;44792;52.760;6.726;2022-09-09T08:28:58;17.00;99.90
59007;DHT22;44792;52.760;6.726;2022-09-09T08:32:05;17.00;99.90
59007;DHT22;44792;52.760;6.726;2022-09-09T08:34:24;17.00;99.90
59007;DHT22;44792;52.760;6.726;2022-09-09T08:36:52;17.00;99.90
59007;DHT22;44792;52.760;6.726;2022-09-09T08:39:19;17.00;99.90
59007;DHT22;44792;52.760;6.726;2022-09-09T08:47:47;17.10;99.90
59007;DHT22;44792;52.760;6.726;2022-09-09T08:55:50;17.30;99.90
59007;DHT22;44792;52.760;6.726;2022-09-09T08:58:31;17.30;99.90
59007;DHT22;44792;52.760;6.726;2022-09-09T09:06:31;17.40;99.90
59007;DHT22;44792;52.760;6.726;2022-09-09T09:09:35;17.40;99.90
59007;DHT22;44792;52.760;6.726;2022-09-09T09:12:42;17.40;99.90
59007;DHT22;44792;52.760;6.726;2022-09-09T09:15:00;17.40;99.90
59007;DHT22;44792;52.760;6.726;2022-09-09T09:17:28;17.50;99.90
59007;DHT22;44792;52.760;6.726;2022-09-09T09:19:57;17.60;99.90
59007;DHT22;44792;52.760;6.726;2022-09-09T09:22:50;17.60;99.90
59007;DHT22;44792;52.760;6.726;2022-09-09T09:25:22;17.60;99.90
59007;DHT22;44792;52.760;6.726;2022-09-09T09:28:02;17.60;99.90
59007;DHT22;44792;52.760;6.726;2022-09-09T09:36:04;17.70;99.90
59007;DHT22;44792;52.760;6.726;2022-09-09T09:38:34;17.70;99.90
59007;DHT22;44792;52.760;6.726;2022-09-09T09:41:00;17.80;99.90
59007;DHT22;44792;52.760;6.726;2022-09-09T09:43:31;17.90;99.90
59007;DHT22;44792;52.760;6.726;2022-09-09T09:45:58;17.90;99.90
59007;DHT22;44792;52.760;6.726;2022-09-09T09:48:25;18.00;99.90
59007;DHT22;44792;52.760;6.726;2022-09-09T09:50:59;18.00;99.90
59007;DHT22;44792;52.760;6.726;2022-09-09T09:53:28;18.00;99.90
59007;DHT22;44792;52.760;6.726;2022-09-09T09:56:01;18.00;99.90
59007;DHT22;44792;52.760;6.726;2022-09-09T09:58:30;18.00;99.90
59007;DHT22;44792;52.760;6.726;2022-09-09T10:00:57;18.10;99.90
59007;DHT22;44792;52.760;6.726;2022-09-09T10:03:32;18.00;99.90
59007;DHT22;44792;52.760;6.726;2022-09-09T10:06:03;18.00;99.90
59007;DHT22;44792;52.760;6.726;2022-09-09T10:08:29;18.00;99.90
59007;DHT22;44792;52.760;6.726;2022-09-09T10:13:46;18.10;99.90
59007;DHT22;44792;52.760;6.726;2022-09-09T10:19:09;18.20;99.90
59007;DHT22;44792;52.760;6.726;2022-09-09T10:27:33;18.40;99.90
59007;DHT22;44792;52.760;6.726;2022-09-09T10:30:17;18.40;99.90
59007;DHT22;44792;52.760;6.726;2022-09-09T10:36:29;18.50;99.90
59007;DHT22;44792;52.760;6.726;2022-09-09T10:38:45;18.50;99.90
59007;DHT22;44792;52.760;6.726;2022-09-09T10:41:40;18.60;99.90
59007;DHT22;44792;52.760;6.726;2022-09-09T11:00:24;19.10;99.90
59007;DHT22;44792;52.760;6.726;2022-09-09T11:03:00;19.10;99.90
59007;DHT22;44792;52.760;6.726;2022-09-09T11:05:42;19.20;99.90
59007;DHT22;44792;52.760;6.726;2022-09-09T11:08:15;19.30;99.90
59007;DHT22;44792;52.760;6.726;2022-09-09T11:13:39;19.40;99.90
59007;DHT22;44792;52.760;6.726;2022-09-09T11:16:38;19.50;99.90
59007;DHT22;44792;52.760;6.726;2022-09-09T11:19:35;19.60;99.90
59007;DHT22;44792;52.760;6.726;2022-09-09T11:22:30;19.70;99.90
59007;DHT22;44792;52.760;6.726;2022-09-09T11:25:21;19.60;99.90
59007;DHT22;44792;52.760;6.726;2022-09-09T11:41:04;19.70;99.90
59007;DHT22;44792;52.760;6.726;2022-09-09T11:43:52;19.70;99.90
59007;DHT22;44792;52.760;6.726;2022-09-09T11:46:32;19.70;99.90
59007;DHT22;44792;52.760;6.726;2022-09-09T11:49:01;19.70;99.90
59007;DHT22;44792;52.760;6.726;2022-09-09T11:51:29;19.70;99.90
59007;DHT22;44792;52.760;6.726;2022-09-09T11:54:44;19.60;99.90
59007;DHT22;44792;52.760;6.726;2022-09-09T11:59:37;19.80;99.90
59007;DHT22;44792;52.760;6.726;2022-09-09T12:02:13;19.80;99.90
59007;DHT22;44792;52.760;6.726;2022-09-09T12:07:35;20.00;99.90
59007;DHT22;44792;52.760;6.726;2022-09-09T12:10:04;20.00;99.90
59007;DHT22;44792;52.760;6.726;2022-09-09T12:12:35;20.10;99.90
59007;DHT22;44792;52.760;6.726;2022-09-09T12:17:47;20.00;99.90
59007;DHT22;44792;52.760;6.726;2022-09-09T12:28:18;20.00;99.90
59007;DHT22;44792;52.760;6.726;2022-09-09T12:30:56;20.00;99.90
59007;DHT22;44792;52.760;6.726;2022-09-09T12:33:24;20.00;99.90
59007;DHT22;44792;52.760;6.726;2022-09-09T12:35:59;19.90;99.90
59007;DHT22;44792;52.760;6.726;2022-09-09T12:38:40;20.00;99.90
59007;DHT22;44792;52.760;6.726;2022-09-09T12:41:15;19.90;99.90
59007;DHT22;44792;52.760;6.726;2022-09-09T12:43:44;19.90;99.90
59007;DHT22;44792;52.760;6.726;2022-09-09T12:46:23;19.80;99.90
59007;DHT22;44792;52.760;6.726;2022-09-09T12:48:53;19.80;99.90
59007;DHT22;44792;52.760;6.726;2022-09-09T12:51:24;19.80;99.90
59007;DHT22;44792;52.760;6.726;2022-09-09T12:53:51;19.70;99.90
59007;DHT22;44792;52.760;6.726;2022-09-09T12:56:22;19.70;99.90
59007;DHT22;44792;52.760;6.726;2022-09-09T12:58:51;19.70;99.90
59007;DHT22;44792;52.760;6.726;2022-09-09T13:03:50;19.60;99.90
59007;DHT22;44792;52.760;6.726;2022-09-09T13:06:28;19.50;99.90
59007;DHT22;44792;52.760;6.726;2022-09-09T13:08:58;19.50;99.90
59007;DHT22;44792;52.760;6.726;2022-09-09T13:11:46;19.50;99.90
59007;DHT22;44792;52.760;6.726;2022-09-09T13:14:19;19.60;99.90
59007;DHT22;44792;52.760;6.726;2022-09-09T13:17:00;19.60;99.90
59007;DHT22;44792;52.760;6.726;2022-09-09T13:19:30;19.70;99.90
59007;DHT22;44792;52.760;6.726;2022-09-09T13:21:57;19.90;99.90
59007;DHT22;44792;52.760;6.726;2022-09-09T13:24:32;20.00;99.90
59007;DHT22;44792;52.760;6.726;2022-09-09T13:27:03;20.10;99.90
59007;DHT22;44792;52.760;6.726;2022-09-09T13:29:30;20.00;99.90
59007;DHT22;44792;52.760;6.726;2022-09-09T13:32:26;20.10;99.90
59007;DHT22;44792;52.760;6.726;2022-09-09T13:34:58;20.00;99.90
59007;DHT22;44792;52.760;6.726;2022-09-09T13:37:37;20.00;99.90
59007;DHT22;44792;52.760;6.726;2022-09-09T13:40:04;20.00;99.90
59007;DHT22;44792;52.760;6.726;2022-09-09T13:42:38;20.00;99.90
59007;DHT22;44792;52.760;6.726;2022-09-09T13:45:06;20.00;99.90
59007;DHT22;44792;52.760;6.726;2022-09-09T13:47:35;19.90;99.90
59007;DHT22;44792;52.760;6.726;2022-09-09T13:50:30;19.90;99.90
59007;DHT22;44792;52.760;6.726;2022-09-09T13:52:58;19.90;99.90
59007;DHT22;44792;52.760;6.726;2022-09-09T13:55:28;19.80;99.90
59007;DHT22;44792;52.760;6.726;2022-09-09T13:57:56;19.80;99.90
59007;DHT22;44792;52.760;6.726;2022-09-09T14:00:23;19.80;99.90
59007;DHT22;44792;52.760;6.726;2022-09-09T14:02:49;19.70;99.90
59007;DHT22;44792;52.760;6.726;2022-09-09T14:05:16;19.50;99.90
59007;DHT22;44792;52.760;6.726;2022-09-09T14:07:42;19.40;99.90
59007;DHT22;44792;52.760;6.726;2022-09-09T14:10:09;19.20;99.90
59007;DHT22;44792;52.760;6.726;2022-09-09T14:12:35;19.00;99.90
59007;DHT22;44792;52.760;6.726;2022-09-09T14:15:02;18.90;99.90
59007;DHT22;44792;52.760;6.726;2022-09-09T14:17:28;18.80;99.90
59007;DHT22;44792;52.760;6.726;2022-09-09T14:19:56;18.60;99.90
59007;DHT22;44792;52.760;6.726;2022-09-09T14:22:22;18.60;99.90
59007;DHT22;44792;52.760;6.726;2022-09-09T14:24:49;18.60;99.90
59007;DHT22;44792;52.760;6.726;2022-09-09T14:27:15;18.60;99.90
59007;DHT22;44792;52.760;6.726;2022-09-09T14:29:41;18.50;99.90
59007;DHT22;44792;52.760;6.726;2022-09-09T14:32:07;18.60;99.90
59007;DHT22;44792;52.760;6.726;2022-09-09T14:34:33;18.60;99.90
59007;DHT22;44792;52.760;6.726;2022-09-09T14:36:58;18.70;99.90
59007;DHT22;44792;52.760;6.726;2022-09-09T14:39:24;18.60;99.90
59007;DHT22;44792;52.760;6.726;2022-09-09T14:41:49;18.70;99.90
59007;DHT22;44792;52.760;6.726;2022-09-09T14:44:15;18.70;99.90
59007;DHT22;44792;52.760;6.726;2022-09-09T14:46:41;18.70;99.90
59007;DHT22;44792;52.760;6.726;2022-09-09T14:49:08;18.80;99.90
59007;DHT22;44792;52.760;6.726;2022-09-09T14:51:36;18.70;99.90
59007;DHT22;44792;52.760;6.726;2022-09-09T14:54:02;18.70;99.90
59007;DHT22;44792;52.760;6.726;2022-09-09T14:56:30;18.80;99.90
59007;DHT22;44792;52.760;6.726;2022-09-09T14:58:58;18.80;99.90
59007;DHT22;44792;52.760;6.726;2022-09-09T15:01:25;18.70;99.90
59007;DHT22;44792;52.760;6.726;2022-09-09T15:03:56;18.80;99.90
59007;DHT22;44792;52.760;6.726;2022-09-09T15:06:24;18.80;99.90
59007;DHT22;44792;52.760;6.726;2022-09-09T15:08:52;18.80;99.90
59007;DHT22;44792;52.760;6.726;2022-09-09T15:11:19;18.80;99.90
59007;DHT22;44792;52.760;6.726;2022-09-09T15:13:45;18.70;99.90
59007;DHT22;44792;52.760;6.726;2022-09-09T15:16:15;18.70;99.90
59007;DHT22;44792;52.760;6.726;2022-09-09T15:18:41;18.70;99.90
59007;DHT22;44792;52.760;6.726;2022-09-09T15:21:15;18.70;99.90
59007;DHT22;44792;52.760;6.726;2022-09-09T15:23:42;18.70;99.90
59007;DHT22;44792;52.760;6.726;2022-09-09T15:26:08;18.60;99.90
59007;DHT22;44792;52.760;6.726;2022-09-09T15:28:36;18.60;99.90
59007;DHT22;44792;52.760;6.726;2022-09-09T15:31:12;18.70;99.90
59007;DHT22;44792;52.760;6.726;2022-09-09T15:33:40;18.60;99.90
59007;DHT22;44792;52.760;6.726;2022-09-09T15:36:26;18.60;99.90
59007;DHT22;44792;52.760;6.726;2022-09-09T15:38:52;18.50;99.90
59007;DHT22;44792;52.760;6.726;2022-09-09T15:41:18;18.50;99.90
59007;DHT22;44792;52.760;6.726;2022-09-09T15:43:46;18.50;99.90
59007;DHT22;44792;52.760;6.726;2022-09-09T15:46:25;18.40;99.90
59007;DHT22;44792;52.760;6.726;2022-09-09T15:48:53;18.40;99.90
59007;DHT22;44792;52.760;6.726;2022-09-09T15:51:20;18.40;99.90
59007;DHT22;44792;52.760;6.726;2022-09-09T15:53:46;18.50;99.90
59007;DHT22;44792;52.760;6.726;2022-09-09T15:56:11;18.40;99.90
59007;DHT22;44792;52.760;6.726;2022-09-09T15:58:37;18.40;99.90
59007;DHT22;44792;52.760;6.726;2022-09-09T16:01:08;18.40;99.90
59007;DHT22;44792;52.760;6.726;2022-09-09T16:03:38;18.50;99.90
59007;DHT22;44792;52.760;6.726;2022-09-09T16:06:05;18.60;99.90
59007;DHT22;44792;52.760;6.726;2022-09-09T16:08:38;18.60;99.90
59007;DHT22;44792;52.760;6.726;2022-09-09T16:11:08;18.60;99.90
59007;DHT22;44792;52.760;6.726;2022-09-09T16:13:36;18.60;99.90
59007;DHT22;44792;52.760;6.726;2022-09-09T16:16:03;18.60;99.90
59007;DHT22;44792;52.760;6.726;2022-09-09T16:18:46;18.50;99.90
59007;DHT22;44792;52.760;6.726;2022-09-09T16:21:18;18.60;99.90
59007;DHT22;44792;52.760;6.726;2022-09-09T16:23:45;18.60;99.90
59007;DHT22;44792;52.760;6.726;2022-09-09T16:26:12;18.60;99.90
59007;DHT22;44792;52.760;6.726;2022-09-09T16:28:38;18.60;99.90
59007;DHT22;44792;52.760;6.726;2022-09-09T16:31:14;18.50;99.90
59007;DHT22;44792;52.760;6.726;2022-09-09T16:33:40;18.60;99.90
59007;DHT22;44792;52.760;6.726;2022-09-09T16:36:08;18.60;99.90
59007;DHT22;44792;52.760;6.726;2022-09-09T16:38:36;18.60;99.90
59007;DHT22;44792;52.760;6.726;2022-09-09T16:41:03;18.60;99.90
59007;DHT22;44792;52.760;6.726;2022-09-09T16:43:30;18.60;99.90
59007;DHT22;44792;52.760;6.726;2022-09-09T16:45:56;18.50;99.90
59007;DHT22;44792;52.760;6.726;2022-09-09T16:48:21;18.50;99.90
59007;DHT22;44792;52.760;6.726;2022-09-09T16:50:47;18.50;99.90
59007;DHT22;44792;52.760;6.726;2022-09-09T16:53:13;18.50;99.90
59007;DHT22;44792;52.760;6.726;2022-09-09T16:55:40;18.50;99.90
59007;DHT22;44792;52.760;6.726;2022-09-09T16:58:12;18.40;99.90
59007;DHT22;44792;52.760;6.726;2022-09-09T17:00:38;18.40;99.90
59007;DHT22;44792;52.760;6.726;2022-09-09T17:03:04;18.40;99.90
59007;DHT22;44792;52.760;6.726;2022-09-09T17:05:29;18.30;99.90
59007;DHT22;44792;52.760;6.726;2022-09-09T17:07:55;18.40;99.90
59007;DHT22;44792;52.760;6.726;2022-09-09T17:10:23;18.40;99.90
59007;DHT22;44792;52.760;6.726;2022-09-09T17:12:49;18.30;99.90
59007;DHT22;44792;52.760;6.726;2022-09-09T17:15:15;18.30;99.90
59007;DHT22;44792;52.760;6.726;2022-09-09T17:17:41;18.30;99.90
59007;DHT22;44792;52.760;6.726;2022-09-09T17:20:09;18.20;99.90
59007;DHT22;44792;52.760;6.726;2022-09-09T17:22:35;18.30;99.90
59007;DHT22;44792;52.760;6.726;2022-09-09T17:25:00;18.20;99.90
59007;DHT22;44792;52.760;6.726;2022-09-09T17:27:26;18.20;99.90
59007;DHT22;44792;52.760;6.726;2022-09-09T17:29:51;18.20;99.90
59007;DHT22;44792;52.760;6.726;2022-09-09T17:32:17;18.20;99.90
59007;DHT22;44792;52.760;6.726;2022-09-09T17:34:43;18.20;99.90
59007;DHT22;44792;52.760;6.726;2022-09-09T17:37:09;18.20;99.90
59007;DHT22;44792;52.760;6.726;2022-09-09T17:39:35;18.20;99.90
59007;DHT22;44792;52.760;6.726;2022-09-09T17:42:01;18.10;99.90
59007;DHT22;44792;52.760;6.726;2022-09-09T17:44:26;18.10;99.90
59007;DHT22;44792;52.760;6.726;2022-09-09T17:46:53;18.10;99.90
59007;DHT22;44792;52.760;6.726;2022-09-09T17:49:19;18.10;99.90